Fox Lake, Wisconsin
Current Conditions -  °F | °C
As of 5:15 PM on Tuesday 25 Nov 2014 (Local Time) from KUNU Reporting Station
Overcast Overcast  
Wind Chill: 12°   Ceiling: 1600
Heat Index: 21°   Visibility: 10mi
Dew Point: 16°   Wind: 7mph
Humidity: 81%   Direction: 230°SW
Pressure: 30.12"   Gusts: NA
Location:  43.57°N, 88.91°W
Report Text: KUNU 252315Z AUTO 23006KT 10SM OVC016 M06/M09 A3012 RMK AO2 T10621090
Loading
Personal Weather Stations






























Interactive Weather Map New forecast layout! Learn more

10-Day Weather Forecast

Advertisements
Track Severe Weather on mobile